createdAt,value
2018-04-14T00:00:30.884Z,12.57
2018-04-14T00:01:31.304Z,12.58
2018-04-14T00:03:25.856Z,12.64
2018-04-14T00:04:26.286Z,12.61
2018-04-14T00:06:20.833Z,12.60
2018-04-14T00:07:21.258Z,12.67
2018-04-14T00:09:15.870Z,12.58
2018-04-14T00:10:16.295Z,12.60
2018-04-14T00:12:10.856Z,12.62
2018-04-14T00:13:11.278Z,12.73
2018-04-14T00:15:05.838Z,12.75
2018-04-14T00:16:06.255Z,12.61
2018-04-14T00:18:00.817Z,12.70
2018-04-14T00:19:01.242Z,12.68
2018-04-14T00:20:55.797Z,12.72
2018-04-14T00:21:56.274Z,12.62
2018-04-14T00:23:50.788Z,12.61
2018-04-14T00:24:51.215Z,12.67
2018-04-14T00:25:51.640Z,12.70
2018-04-14T00:26:52.079Z,12.61
2018-04-14T00:27:52.532Z,12.60
2018-04-14T00:28:52.944Z,12.61
2018-04-14T00:29:53.365Z,12.64
2018-04-14T00:30:53.786Z,12.46
2018-04-14T00:31:54.221Z,12.50
2018-04-14T00:32:54.642Z,12.53
2018-04-14T00:33:55.069Z,12.55
2018-04-14T00:34:55.499Z,12.58
2018-04-14T00:35:55.927Z,12.53
2018-04-14T00:36:56.363Z,12.50
2018-04-14T00:37:56.783Z,12.42
2018-04-14T00:38:57.212Z,12.43
2018-04-14T00:39:57.649Z,12.42
2018-04-14T00:40:58.070Z,12.45
2018-04-14T00:41:58.498Z,12.45
2018-04-14T00:42:58.927Z,12.49
2018-04-14T00:43:59.354Z,12.43
2018-04-14T00:44:59.789Z,12.37
2018-04-14T00:46:00.213Z,12.47
2018-04-14T00:47:00.642Z,12.39
2018-04-14T00:48:01.068Z,12.39
2018-04-14T00:49:01.502Z,12.35
2018-04-14T00:50:01.923Z,12.42
2018-04-14T00:51:02.350Z,12.37
2018-04-14T00:52:02.778Z,12.42
2018-04-14T00:53:03.206Z,12.36
2018-04-14T00:54:03.647Z,12.36
2018-04-14T00:55:04.061Z,12.36
2018-04-14T00:56:04.495Z,12.35
2018-04-14T00:57:04.919Z,12.35
2018-04-14T00:58:05.350Z,12.35
2018-04-14T00:59:05.777Z,12.31
2018-04-14T01:00:06.218Z,12.35
2018-04-14T01:01:06.636Z,12.36
2018-04-14T01:02:07.085Z,12.40
2018-04-14T01:03:07.502Z,12.35
2018-04-14T01:04:07.928Z,12.32
2018-04-14T01:05:08.350Z,12.32
2018-04-14T01:06:08.772Z,12.36
2018-04-14T01:07:09.213Z,12.31
2018-04-14T01:08:09.642Z,12.35
2018-04-14T01:09:10.056Z,12.31
2018-04-14T01:10:10.485Z,12.29
2018-04-14T01:11:10.916Z,12.24
2018-04-14T01:12:11.360Z,12.27
2018-04-14T01:13:11.774Z,12.18
2018-04-14T01:14:12.205Z,12.21
2018-04-14T01:15:12.667Z,12.25
2018-04-14T01:16:13.059Z,12.27
2018-04-14T01:17:13.482Z,12.21
2018-04-14T01:18:13.908Z,12.18
2018-04-14T01:19:14.336Z,12.15
2018-04-14T01:20:14.768Z,12.20
2018-04-14T01:21:15.195Z,12.20
2018-04-14T01:22:15.626Z,12.20
2018-04-14T01:23:16.055Z,12.21
2018-04-14T01:24:16.476Z,12.28
2018-04-14T01:25:16.910Z,12.31
2018-04-14T01:26:17.331Z,12.31
2018-04-14T01:27:17.757Z,12.22
2018-04-14T01:28:18.188Z,12.15
2018-04-14T01:29:18.615Z,12.28
2018-04-14T01:30:19.044Z,12.17
2018-04-14T01:31:19.483Z,12.25
2018-04-14T01:32:19.899Z,12.22
2018-04-14T01:33:20.327Z,12.15
2018-04-14T01:34:20.756Z,12.22
2018-04-14T01:35:21.183Z,12.24
2018-04-14T01:36:21.609Z,12.22
2018-04-14T01:37:22.037Z,12.21
2018-04-14T01:38:22.470Z,12.22
2018-04-14T01:39:22.894Z,12.17
2018-04-14T01:40:23.320Z,12.24
2018-04-14T01:41:23.752Z,12.20
2018-04-14T01:42:24.182Z,12.18
2018-04-14T01:43:24.605Z,12.20
2018-04-14T01:44:25.032Z,12.24
2018-04-14T01:45:25.462Z,12.20
2018-04-14T01:46:25.897Z,12.15
2018-04-14T01:47:26.314Z,12.22
2018-04-14T01:48:26.739Z,12.24
2018-04-14T01:49:27.169Z,12.18
2018-04-14T01:50:27.604Z,12.17
2018-04-14T01:51:28.024Z,12.15
2018-04-14T01:52:28.452Z,12.20
2018-04-14T01:53:28.880Z,12.21
2018-04-14T01:54:29.308Z,12.17
2018-04-14T01:55:29.734Z,12.21
2018-04-14T01:56:30.164Z,12.21
2018-04-14T01:57:30.589Z,12.13
2018-04-14T01:58:31.018Z,12.15
2018-04-14T01:59:31.450Z,12.06
2018-04-14T02:00:31.873Z,12.17
2018-04-14T02:01:32.305Z,12.13
2018-04-14T02:02:32.731Z,12.07
2018-04-14T02:03:33.155Z,12.10
2018-04-14T02:04:33.583Z,12.07
2018-04-14T02:05:34.019Z,12.12
2018-04-14T02:06:34.437Z,12.12
2018-04-14T02:07:34.874Z,12.09
2018-04-14T02:08:35.299Z,12.07
2018-04-14T02:09:35.726Z,12.07
2018-04-14T02:10:36.149Z,12.00
2018-04-14T02:11:36.583Z,11.95
2018-04-14T02:12:37.006Z,12.03
2018-04-14T02:13:37.430Z,12.07
2018-04-14T02:14:37.865Z,12.04
2018-04-14T02:15:38.296Z,12.09
2018-04-14T02:16:38.738Z,11.99
2018-04-14T02:17:39.146Z,11.91
2018-04-14T02:18:39.584Z,12.00
2018-04-14T02:19:39.998Z,11.94
2018-04-14T02:20:40.423Z,12.00
2018-04-14T02:21:40.855Z,12.07
2018-04-14T02:22:41.276Z,11.97
2018-04-14T02:23:41.710Z,12.03
2018-04-14T02:24:42.132Z,12.02
2018-04-14T02:25:42.565Z,12.00
2018-04-14T02:26:42.997Z,11.99
2018-04-14T02:27:43.418Z,11.99
2018-04-14T02:28:43.846Z,11.99
2018-04-14T02:29:44.338Z,12.00
2018-04-14T02:30:44.710Z,11.88
2018-04-14T02:31:45.126Z,11.95
2018-04-14T02:32:45.651Z,11.91
2018-04-14T02:33:45.978Z,12.02
2018-04-14T02:34:46.413Z,11.90
2018-04-14T02:35:46.849Z,12.03
2018-04-14T02:36:47.266Z,12.00
2018-04-14T02:37:47.693Z,11.99
2018-04-14T02:38:48.122Z,12.02
2018-04-14T02:39:48.548Z,11.99
2018-04-14T02:40:48.975Z,12.02
2018-04-14T02:41:49.409Z,11.87
2018-04-14T02:42:49.831Z,11.86
2018-04-14T02:43:50.256Z,11.86
2018-04-14T02:44:50.695Z,11.88
2018-04-14T02:45:51.113Z,12.02
2018-04-14T02:46:51.554Z,11.91
2018-04-14T02:47:51.972Z,11.90
2018-04-14T02:48:52.395Z,11.90
2018-04-14T02:49:52.821Z,12.03
2018-04-14T02:50:53.268Z,11.97
2018-04-14T02:51:53.681Z,11.99
2018-04-14T02:52:54.108Z,11.87
2018-04-14T02:53:54.541Z,11.87
2018-04-14T02:54:54.961Z,11.95
2018-04-14T02:55:55.392Z,11.88
2018-04-14T02:56:55.824Z,12.00
2018-04-14T02:57:56.244Z,12.06
2018-04-14T02:58:56.675Z,12.09
2018-04-14T02:59:57.100Z,11.99
2018-04-14T03:00:57.525Z,12.10
2018-04-14T03:01:57.959Z,11.94
2018-04-14T03:02:58.382Z,11.97
2018-04-14T03:03:58.812Z,11.91
2018-04-14T03:04:59.241Z,12.00
2018-04-14T03:05:59.670Z,12.03
2018-04-14T03:07:00.127Z,12.00
2018-04-14T03:08:00.583Z,12.00
2018-04-14T03:09:00.952Z,12.04
2018-04-14T03:10:01.376Z,12.00
2018-04-14T03:11:01.803Z,12.09
2018-04-14T03:12:02.246Z,12.00
2018-04-14T03:13:02.660Z,12.02
2018-04-14T03:14:03.089Z,12.04
2018-04-14T03:15:03.516Z,12.03
2018-04-14T03:16:03.953Z,12.09
2018-04-14T03:17:04.370Z,12.09
2018-04-14T03:18:04.796Z,12.10
2018-04-14T03:19:05.229Z,11.95
2018-04-14T03:20:05.655Z,12.17
2018-04-14T03:21:06.078Z,12.09
2018-04-14T03:22:06.509Z,12.06
2018-04-14T03:23:06.935Z,12.09
2018-04-14T03:24:07.364Z,12.07
2018-04-14T03:25:07.792Z,12.10
2018-04-14T03:26:08.217Z,12.07
2018-04-14T03:27:08.647Z,12.13
2018-04-14T03:28:09.073Z,12.20
2018-04-14T03:29:09.501Z,12.20
2018-04-14T03:30:09.937Z,12.18
2018-04-14T03:31:10.362Z,12.21
2018-04-14T03:32:10.784Z,12.21
2018-04-14T03:33:11.217Z,12.25
2018-04-14T03:34:11.640Z,12.28
2018-04-14T03:35:12.067Z,12.21
2018-04-14T03:36:12.497Z,12.35
2018-04-14T03:37:12.920Z,12.24
2018-04-14T03:38:13.349Z,12.25
2018-04-14T03:39:13.783Z,12.24
2018-04-14T03:40:14.207Z,12.27
2018-04-14T03:41:14.649Z,12.27
2018-04-14T03:42:15.063Z,12.28
2018-04-14T03:43:15.488Z,12.22
2018-04-14T03:44:15.915Z,12.22
2018-04-14T03:45:16.347Z,12.21
2018-04-14T03:46:16.770Z,12.24
2018-04-14T03:47:17.204Z,12.28
2018-04-14T03:48:17.633Z,12.24
2018-04-14T03:49:18.057Z,12.18
2018-04-14T03:50:18.485Z,12.13
2018-04-14T03:51:18.916Z,12.07
2018-04-14T03:52:19.343Z,12.07
2018-04-14T03:53:19.792Z,12.20
2018-04-14T03:54:20.195Z,12.20
2018-04-14T03:55:20.627Z,12.10
2018-04-14T03:56:21.049Z,12.20
2018-04-14T03:57:21.482Z,12.22
2018-04-14T03:58:21.913Z,12.22
2018-04-14T03:59:22.334Z,12.31
2018-04-14T04:00:22.766Z,12.24
2018-04-14T04:01:23.190Z,12.20
2018-04-14T04:02:23.623Z,12.20
2018-04-14T04:03:24.051Z,12.25
2018-04-14T04:04:24.476Z,12.28
2018-04-14T04:05:24.907Z,12.21
2018-04-14T04:06:25.334Z,12.32
2018-04-14T04:07:25.763Z,12.31
2018-04-14T04:08:26.191Z,12.36
2018-04-14T04:09:26.612Z,12.36
2018-04-14T04:10:27.043Z,12.37
2018-04-14T04:11:27.470Z,12.36
2018-04-14T04:12:27.902Z,12.28
2018-04-14T04:13:28.325Z,12.37
2018-04-14T04:14:28.759Z,12.24
2018-04-14T04:15:29.181Z,12.37
2018-04-14T04:16:29.614Z,12.36
2018-04-14T04:17:30.036Z,12.18
2018-04-14T04:18:30.464Z,12.24
2018-04-14T04:19:30.900Z,12.22
2018-04-14T04:20:31.322Z,12.35
2018-04-14T04:21:31.747Z,12.29
2018-04-14T04:22:32.179Z,12.35
2018-04-14T04:23:32.610Z,12.25
2018-04-14T04:24:33.031Z,12.25
2018-04-14T04:25:33.458Z,12.22
2018-04-14T04:26:33.886Z,12.24
2018-04-14T04:27:34.314Z,12.17
2018-04-14T04:28:34.750Z,12.27
2018-04-14T04:29:35.170Z,12.20
2018-04-14T04:30:35.598Z,12.18
2018-04-14T04:31:36.024Z,12.24
2018-04-14T04:32:36.462Z,12.20
2018-04-14T04:33:36.883Z,12.20
2018-04-14T04:34:37.314Z,12.20
2018-04-14T04:35:37.741Z,12.21
2018-04-14T04:36:38.164Z,12.15
2018-04-14T04:37:38.592Z,12.20
2018-04-14T04:38:39.020Z,12.22
2018-04-14T04:39:39.444Z,12.13
2018-04-14T04:40:39.872Z,12.10
2018-04-14T04:41:40.307Z,12.12
2018-04-14T04:42:40.730Z,12.18
2018-04-14T04:43:41.161Z,12.09
2018-04-14T04:44:41.583Z,12.06
2018-04-14T04:45:42.014Z,12.13
2018-04-14T04:46:42.439Z,12.07
2018-04-14T04:47:42.866Z,12.02
2018-04-14T04:48:43.304Z,12.04
2018-04-14T04:49:43.718Z,12.00
2018-04-14T04:50:44.157Z,12.00
2018-04-14T04:51:44.578Z,11.99
2018-04-14T04:52:45.011Z,11.99
2018-04-14T04:53:45.440Z,11.97
2018-04-14T04:54:45.861Z,11.86
2018-04-14T04:55:46.283Z,11.95
2018-04-14T04:56:46.713Z,11.84
2018-04-14T04:57:47.136Z,11.94
2018-04-14T04:58:47.569Z,11.94
2018-04-14T04:59:47.995Z,11.90
2018-04-14T05:00:48.423Z,11.83
2018-04-14T05:01:48.848Z,11.81
2018-04-14T05:02:49.277Z,11.78
2018-04-14T05:03:49.706Z,11.77
2018-04-14T05:04:50.128Z,11.84
2018-04-14T05:05:50.560Z,11.94
2018-04-14T05:06:50.984Z,11.95
2018-04-14T05:07:51.411Z,11.95
2018-04-14T05:08:51.839Z,11.87
2018-04-14T05:09:52.269Z,11.83
2018-04-14T05:10:52.693Z,11.84
2018-04-14T05:11:53.122Z,11.87
2018-04-14T05:12:53.548Z,11.90
2018-04-14T05:13:53.976Z,12.00
2018-04-14T05:14:54.399Z,11.99
2018-04-14T05:15:54.829Z,11.99
2018-04-14T05:16:55.253Z,12.02
2018-04-14T05:17:55.685Z,12.00
2018-04-14T05:18:56.110Z,12.06
2018-04-14T05:19:56.536Z,12.12
2018-04-14T05:20:56.962Z,12.06
2018-04-14T05:21:57.387Z,11.99
2018-04-14T05:22:57.825Z,12.00
2018-04-14T05:23:58.242Z,12.06
2018-04-14T05:24:58.673Z,12.03
2018-04-14T05:25:59.101Z,12.03
2018-04-14T05:26:59.541Z,12.07
2018-04-14T05:27:59.957Z,12.17
2018-04-14T05:29:00.382Z,12.10
2018-04-14T05:30:00.819Z,12.09
2018-04-14T05:31:01.236Z,12.06
2018-04-14T05:32:01.671Z,12.09
2018-04-14T05:33:02.092Z,12.09
2018-04-14T05:34:02.523Z,12.13
2018-04-14T05:35:02.948Z,12.17
2018-04-14T05:36:03.376Z,12.20
2018-04-14T05:37:03.800Z,12.18
2018-04-14T05:38:04.228Z,12.21
2018-04-14T05:39:04.657Z,12.22
2018-04-14T05:40:05.084Z,12.09
2018-04-14T05:41:05.509Z,12.18
2018-04-14T05:42:05.935Z,12.20
2018-04-14T05:43:06.363Z,12.24
2018-04-14T05:44:06.797Z,12.22
2018-04-14T05:45:07.225Z,12.15
2018-04-14T05:46:07.651Z,12.21
2018-04-14T05:47:08.079Z,12.18
2018-04-14T05:48:08.499Z,12.18
2018-04-14T05:49:08.936Z,12.17
2018-04-14T05:50:09.368Z,12.24
2018-04-14T05:51:09.789Z,12.17
2018-04-14T05:52:10.222Z,12.13
2018-04-14T05:53:10.644Z,12.22
2018-04-14T05:54:11.074Z,12.24
2018-04-14T05:55:11.500Z,12.22
2018-04-14T05:56:11.928Z,12.20
2018-04-14T05:57:12.353Z,12.15
2018-04-14T05:58:12.781Z,12.20
2018-04-14T05:59:13.211Z,12.15
2018-04-14T06:00:13.671Z,12.04
2018-04-14T06:01:14.138Z,12.06
2018-04-14T06:02:14.489Z,12.09
2018-04-14T06:03:14.921Z,12.17
2018-04-14T06:04:15.346Z,12.10
2018-04-14T06:05:15.778Z,12.13
2018-04-14T06:06:16.201Z,12.09
2018-04-14T06:07:16.632Z,12.21
2018-04-14T06:08:17.056Z,12.06
2018-04-14T06:09:17.509Z,12.18
2018-04-14T06:10:17.909Z,12.17
2018-04-14T06:11:18.353Z,12.18
2018-04-14T06:12:18.768Z,12.22
2018-04-14T06:13:19.197Z,12.22
2018-04-14T06:14:19.626Z,12.21
2018-04-14T06:15:20.052Z,12.21
2018-04-14T06:16:20.483Z,12.20
2018-04-14T06:17:20.907Z,12.18
2018-04-14T06:18:21.340Z,12.24
2018-04-14T06:19:21.764Z,12.37
2018-04-14T06:20:22.191Z,12.47
2018-04-14T06:21:22.613Z,12.37
2018-04-14T06:22:23.083Z,12.35
2018-04-14T06:23:23.473Z,12.39
2018-04-14T06:24:23.910Z,12.32
2018-04-14T06:25:24.359Z,12.45
2018-04-14T06:26:24.763Z,12.37
2018-04-14T06:27:25.253Z,12.31
2018-04-14T06:28:25.645Z,12.40
2018-04-14T06:29:26.093Z,12.40
2018-04-14T06:30:26.497Z,12.45
2018-04-14T06:31:26.922Z,12.37
2018-04-14T06:32:27.348Z,12.32
2018-04-14T06:33:27.864Z,12.35
2018-04-14T06:34:28.203Z,12.25
2018-04-14T06:35:28.632Z,12.29
2018-04-14T06:36:29.115Z,12.22
2018-04-14T06:37:29.495Z,12.27
2018-04-14T06:38:29.943Z,12.24
2018-04-14T06:39:30.380Z,12.29
2018-04-14T06:40:30.762Z,12.39
2018-04-14T06:41:31.214Z,12.22
2018-04-14T06:42:31.661Z,12.27
2018-04-14T06:43:32.044Z,12.27
2018-04-14T06:44:32.467Z,12.29
2018-04-14T06:45:32.919Z,12.22
2018-04-14T06:46:33.324Z,12.36
2018-04-14T06:47:33.781Z,12.35
2018-04-14T06:48:34.182Z,12.45
2018-04-14T06:49:34.613Z,12.25
2018-04-14T06:50:35.094Z,12.39
2018-04-14T06:51:35.500Z,12.32
2018-04-14T06:52:35.928Z,12.45
2018-04-14T06:53:36.331Z,12.64
2018-04-14T06:54:36.788Z,12.47
2018-04-14T06:55:37.181Z,12.39
2018-04-14T06:56:37.639Z,12.49
2018-04-14T06:57:38.037Z,12.49
2018-04-14T06:58:38.484Z,12.65
2018-04-14T06:59:38.913Z,12.70
2018-04-14T07:00:39.328Z,12.58
2018-04-14T07:01:39.804Z,12.79
2018-04-14T07:02:40.184Z,12.60
2018-04-14T07:03:40.617Z,12.62
2018-04-14T07:04:41.055Z,12.75
2018-04-14T07:05:41.472Z,12.62
2018-04-14T07:06:41.941Z,12.57
2018-04-14T07:07:42.335Z,12.62
2018-04-14T07:08:42.763Z,12.65
2018-04-14T07:09:43.215Z,12.68
2018-04-14T07:10:43.612Z,12.83
2018-04-14T07:11:44.044Z,12.98
2018-04-14T07:12:44.508Z,12.95
2018-04-14T07:13:44.907Z,13.09
2018-04-14T07:14:45.329Z,13.18
2018-04-14T07:15:45.768Z,13.20
2018-04-14T07:16:46.187Z,13.23
2018-04-14T07:17:46.631Z,13.30
2018-04-14T07:18:47.049Z,13.39
2018-04-14T07:19:47.522Z,13.19
2018-04-14T07:20:48.019Z,13.38
2018-04-14T07:21:48.348Z,13.25
2018-04-14T07:22:48.813Z,13.08
2018-04-14T07:23:49.227Z,13.15
2018-04-14T07:24:49.662Z,13.23
2018-04-14T07:25:50.074Z,13.37
2018-04-14T07:26:50.526Z,13.39
2018-04-14T07:27:50.922Z,13.49
2018-04-14T07:28:51.389Z,13.39
2018-04-14T07:29:51.788Z,13.49
2018-04-14T07:30:52.228Z,13.50
2018-04-14T07:31:52.649Z,13.57
2018-04-14T07:32:53.099Z,13.71
2018-04-14T07:33:53.522Z,13.77
2018-04-14T07:34:53.941Z,13.85
2018-04-14T07:35:54.371Z,13.65
2018-04-14T07:36:54.813Z,13.92
2018-04-14T07:37:55.231Z,14.11
2018-04-14T07:38:55.688Z,13.96
2018-04-14T07:39:56.112Z,13.67
2018-04-14T07:40:56.532Z,13.77
2018-04-14T07:41:56.989Z,13.60
2018-04-14T07:42:57.479Z,13.71
2018-04-14T07:43:57.835Z,13.65
2018-04-14T07:44:58.263Z,13.95
2018-04-14T07:45:58.702Z,13.90
2018-04-14T07:46:59.153Z,13.99
2018-04-14T07:47:59.549Z,14.05
2018-04-14T07:48:59.982Z,14.11
2018-04-14T07:50:00.430Z,14.00
2018-04-14T07:51:00.847Z,14.07
2018-04-14T07:52:01.297Z,14.08
2018-04-14T07:53:01.737Z,14.28
2018-04-14T07:54:02.161Z,14.35
2018-04-14T07:55:02.603Z,14.20
2018-04-14T07:56:03.031Z,14.37
2018-04-14T07:57:03.452Z,14.45
2018-04-14T07:58:03.903Z,14.30
2018-04-14T07:59:04.351Z,14.28
2018-04-14T08:00:04.729Z,14.33
2018-04-14T08:01:05.181Z,14.18
2018-04-14T08:02:05.626Z,14.30
2018-04-14T08:03:06.028Z,14.25
2018-04-14T08:04:06.488Z,14.50
2018-04-14T08:05:06.884Z,14.58
2018-04-14T08:06:07.328Z,14.58
2018-04-14T08:07:07.756Z,14.68
2018-04-14T08:08:08.196Z,14.33
2018-04-14T08:09:08.646Z,14.44
2018-04-14T08:10:09.054Z,14.50
2018-04-14T08:11:09.493Z,14.51
2018-04-14T08:12:09.965Z,14.60
2018-04-14T08:13:10.371Z,14.26
2018-04-14T08:14:10.808Z,14.20
2018-04-14T08:15:11.220Z,14.22
2018-04-14T08:16:11.647Z,14.18
2018-04-14T08:17:12.082Z,14.11
2018-04-14T08:18:12.537Z,14.05
2018-04-14T08:19:12.938Z,14.00
2018-04-14T08:20:13.378Z,14.12
2018-04-14T08:21:13.816Z,14.14
2018-04-14T08:22:14.235Z,14.20
2018-04-14T08:23:14.712Z,14.07
2018-04-14T08:24:15.101Z,14.18
2018-04-14T08:25:15.529Z,14.08
2018-04-14T08:26:15.985Z,13.96
2018-04-14T08:27:16.395Z,13.90
2018-04-14T08:28:16.828Z,13.89
2018-04-14T08:29:17.267Z,14.04
2018-04-14T08:30:17.722Z,14.12
2018-04-14T08:31:18.137Z,14.00
2018-04-14T08:32:18.585Z,14.07
2018-04-14T08:33:18.974Z,13.95
2018-04-14T08:34:19.450Z,14.03
2018-04-14T08:35:19.848Z,14.29
2018-04-14T08:36:20.275Z,14.36
2018-04-14T08:37:20.794Z,14.33
2018-04-14T08:38:21.122Z,14.44
2018-04-14T08:39:21.595Z,14.68
2018-04-14T08:40:21.985Z,14.66
2018-04-14T08:41:22.436Z,14.96
2018-04-14T08:42:22.849Z,15.09
2018-04-14T08:43:23.278Z,15.24
2018-04-14T08:44:23.713Z,15.09
2018-04-14T08:45:24.145Z,15.44
2018-04-14T08:46:24.575Z,15.68
2018-04-14T08:47:25.017Z,15.29
2018-04-14T08:48:25.458Z,15.33
2018-04-14T08:49:25.903Z,15.61
2018-04-14T08:50:26.344Z,15.80
2018-04-14T08:51:26.781Z,15.58
2018-04-14T08:52:27.195Z,15.70
2018-04-14T08:53:27.650Z,15.80
2018-04-14T08:54:28.054Z,15.86
2018-04-14T08:55:28.485Z,15.43
2018-04-14T08:56:28.913Z,15.57
2018-04-14T08:57:29.352Z,15.91
2018-04-14T08:58:29.846Z,15.84
2018-04-14T08:59:30.218Z,15.98
2018-04-14T09:00:30.643Z,15.65
2018-04-14T09:01:31.082Z,15.68
2018-04-14T09:02:31.532Z,15.57
2018-04-14T09:03:31.966Z,15.46
2018-04-14T09:04:32.403Z,15.51
2018-04-14T09:05:32.835Z,15.64
2018-04-14T09:06:33.257Z,15.51
2018-04-14T09:07:33.703Z,15.59
2018-04-14T09:08:34.132Z,15.40
2018-04-14T09:09:34.568Z,15.22
2018-04-14T09:10:34.969Z,15.49
2018-04-14T09:11:35.442Z,15.77
2018-04-14T09:12:35.860Z,15.82
2018-04-14T09:13:36.271Z,15.52
2018-04-14T09:14:36.711Z,15.55
2018-04-14T09:15:37.198Z,15.67
2018-04-14T09:16:37.590Z,15.58
2018-04-14T09:17:38.011Z,15.64
2018-04-14T09:18:38.443Z,15.61
2018-04-14T09:19:38.880Z,15.57
2018-04-14T09:20:39.313Z,14.96
2018-04-14T09:21:39.744Z,15.18
2018-04-14T09:22:40.173Z,15.18
2018-04-14T09:23:40.604Z,15.04
2018-04-14T09:24:41.040Z,15.02
2018-04-14T09:25:41.487Z,15.03
2018-04-14T09:26:41.899Z,15.02
2018-04-14T09:27:42.326Z,15.04
2018-04-14T09:28:42.766Z,15.21
2018-04-14T09:29:43.238Z,15.36
2018-04-14T09:30:43.631Z,15.44
2018-04-14T09:31:44.055Z,15.57
2018-04-14T09:32:44.514Z,15.75
2018-04-14T09:33:44.919Z,15.67
2018-04-14T09:34:45.389Z,15.84
2018-04-14T09:35:45.824Z,15.73
2018-04-14T09:36:46.228Z,15.82
2018-04-14T09:37:46.720Z,15.57
2018-04-14T09:38:47.110Z,15.33
2018-04-14T09:39:47.529Z,15.37
2018-04-14T09:40:48.005Z,15.25
2018-04-14T09:41:48.386Z,15.40
2018-04-14T09:42:48.831Z,15.64
2018-04-14T09:43:49.272Z,15.83
2018-04-14T09:44:49.699Z,15.62
2018-04-14T09:45:50.115Z,15.86
2018-04-14T09:46:50.558Z,15.73
2018-04-14T09:47:50.994Z,16.00
2018-04-14T09:48:51.420Z,16.60
2018-04-14T09:49:51.862Z,16.78
2018-04-14T09:50:52.313Z,16.90
2018-04-14T09:51:52.726Z,16.50
2018-04-14T09:52:53.157Z,16.84
2018-04-14T09:53:53.599Z,16.54
2018-04-14T09:54:54.043Z,16.75
2018-04-14T09:55:54.457Z,16.50
2018-04-14T09:56:54.935Z,16.20
2018-04-14T09:57:55.368Z,16.01
2018-04-14T09:58:55.802Z,16.23
2018-04-14T09:59:56.222Z,16.33
2018-04-14T10:00:56.647Z,16.10
2018-04-14T10:01:57.093Z,15.91
2018-04-14T10:02:57.525Z,16.24
2018-04-14T10:03:57.956Z,16.02
2018-04-14T10:04:58.411Z,16.04
2018-04-14T10:05:58.820Z,16.28
2018-04-14T10:06:59.267Z,16.24
2018-04-14T10:07:59.696Z,16.46
2018-04-14T10:09:00.128Z,16.28
2018-04-14T10:10:00.561Z,16.29
2018-04-14T10:11:01.004Z,16.29
2018-04-14T10:12:01.442Z,16.16
2018-04-14T10:13:01.871Z,16.29
2018-04-14T10:14:02.294Z,16.31
2018-04-14T10:15:02.725Z,16.68
2018-04-14T10:16:03.165Z,16.81
2018-04-14T10:17:03.603Z,16.66
2018-04-14T10:18:04.028Z,16.90
2018-04-14T10:19:04.476Z,16.32
2018-04-14T10:20:04.899Z,16.31
2018-04-14T10:21:05.333Z,16.28
2018-04-14T10:22:05.767Z,16.46
2018-04-14T10:23:06.201Z,16.65
2018-04-14T10:24:06.663Z,16.91
2018-04-14T10:25:07.098Z,16.65
2018-04-14T10:26:07.506Z,16.87
2018-04-14T10:27:07.994Z,17.36
2018-04-14T10:28:08.392Z,17.56
2018-04-14T10:29:08.809Z,17.72
2018-04-14T10:30:09.272Z,17.59
2018-04-14T10:31:09.688Z,17.19
2018-04-14T10:32:10.112Z,17.63
2018-04-14T10:33:10.549Z,17.80
2018-04-14T10:34:10.983Z,17.59
2018-04-14T10:35:11.435Z,18.05
2018-04-14T10:36:11.857Z,17.97
2018-04-14T10:37:12.319Z,17.67
2018-04-14T10:38:12.756Z,18.22
2018-04-14T10:39:13.213Z,18.05
2018-04-14T10:40:13.675Z,17.76
2018-04-14T10:41:14.042Z,17.20
2018-04-14T10:42:14.503Z,17.46
2018-04-14T10:43:14.924Z,17.33
2018-04-14T10:44:15.400Z,17.74
2018-04-14T10:45:15.822Z,18.23
2018-04-14T10:46:16.231Z,18.45
2018-04-14T10:47:16.740Z,18.63
2018-04-14T10:48:17.106Z,19.29
2018-04-14T10:49:17.587Z,19.26
2018-04-14T10:50:17.988Z,19.22
2018-04-14T10:51:18.447Z,19.33
2018-04-14T10:52:18.863Z,18.78
2018-04-14T10:53:19.298Z,19.00
2018-04-14T10:54:19.743Z,18.98
2018-04-14T10:55:20.177Z,18.58
2018-04-14T10:56:20.631Z,18.37
2018-04-14T10:57:21.056Z,18.11
2018-04-14T10:58:21.498Z,17.95
2018-04-14T10:59:21.936Z,17.52
2018-04-14T11:00:22.383Z,17.74
2018-04-14T11:01:22.801Z,18.15
2018-04-14T11:02:23.248Z,18.44
2018-04-14T11:03:23.700Z,18.65
2018-04-14T11:04:24.123Z,18.37
2018-04-14T11:05:24.567Z,18.47
2018-04-14T11:06:25.003Z,18.55
2018-04-14T11:07:25.441Z,19.04
2018-04-14T11:08:25.892Z,19.47
2018-04-14T11:09:26.321Z,19.67
2018-04-14T11:10:26.768Z,19.39
2018-04-14T11:11:27.196Z,19.30
2018-04-14T11:12:27.642Z,18.80
2018-04-14T11:13:28.095Z,19.21
2018-04-14T11:14:28.518Z,19.19
2018-04-14T11:15:28.988Z,19.54
2018-04-14T11:16:29.389Z,19.64
2018-04-14T11:17:29.836Z,19.92
2018-04-14T11:18:30.298Z,20.04
2018-04-14T11:19:30.712Z,20.41
2018-04-14T11:20:31.285Z,20.87
2018-04-14T11:21:31.610Z,20.97
2018-04-14T11:22:32.056Z,21.58
2018-04-14T11:23:32.472Z,21.35
2018-04-14T11:24:32.924Z,20.47
2018-04-14T11:25:33.363Z,20.58
2018-04-14T11:26:33.801Z,20.19
2018-04-14T11:27:34.249Z,20.28
2018-04-14T11:28:34.692Z,20.77
2018-04-14T11:29:35.141Z,20.44
2018-04-14T11:30:35.592Z,20.18
2018-04-14T11:31:36.017Z,19.96
2018-04-14T11:32:36.456Z,19.76
2018-04-14T11:33:36.930Z,19.74
2018-04-14T11:34:37.347Z,19.51
2018-04-14T11:35:37.801Z,19.26
2018-04-14T11:36:38.230Z,19.04
2018-04-14T11:37:38.678Z,18.96
2018-04-14T11:38:39.118Z,19.11
2018-04-14T11:39:39.542Z,18.75
2018-04-14T11:40:39.984Z,18.56
2018-04-14T11:41:40.426Z,18.80
2018-04-14T11:42:40.858Z,18.49
2018-04-14T11:43:41.301Z,18.59
2018-04-14T11:44:41.734Z,18.84
2018-04-14T11:45:42.177Z,18.92
2018-04-14T11:46:42.620Z,19.07
2018-04-14T11:47:43.053Z,18.59
2018-04-14T11:48:43.496Z,18.47
2018-04-14T11:49:43.931Z,18.22
2018-04-14T11:50:44.370Z,18.03
2018-04-14T11:51:44.818Z,17.85
2018-04-14T11:52:45.242Z,18.04
2018-04-14T11:53:45.679Z,18.34
2018-04-14T11:54:46.133Z,18.60
2018-04-14T11:55:46.614Z,18.81
2018-04-14T11:56:47.000Z,18.37
2018-04-14T11:57:47.438Z,18.47
2018-04-14T11:58:47.876Z,18.55
2018-04-14T11:59:48.310Z,18.52
2018-04-14T12:00:48.744Z,18.49
2018-04-14T12:01:49.184Z,18.49
2018-04-14T12:02:49.627Z,18.44
2018-04-14T12:03:50.063Z,18.38
2018-04-14T12:04:50.498Z,18.00
2018-04-14T12:05:50.935Z,17.78
2018-04-14T12:06:51.377Z,17.86
2018-04-14T12:07:51.807Z,18.00
2018-04-14T12:08:52.244Z,17.76
2018-04-14T12:09:52.708Z,17.89
2018-04-14T12:10:53.128Z,17.89
2018-04-14T12:11:53.551Z,17.51
2018-04-14T12:12:53.987Z,17.56
2018-04-14T12:13:54.427Z,17.51
2018-04-14T12:14:54.875Z,17.72
2018-04-14T12:15:55.347Z,17.76
2018-04-14T12:16:55.767Z,17.65
2018-04-14T12:17:56.167Z,17.68
2018-04-14T12:18:56.612Z,17.60
2018-04-14T12:19:57.033Z,17.36
2018-04-14T12:20:57.504Z,17.04
2018-04-14T12:21:57.917Z,16.97
2018-04-14T12:22:58.354Z,17.06
2018-04-14T12:23:58.802Z,16.93
2018-04-14T12:24:59.236Z,16.83
2018-04-14T12:25:59.692Z,16.90
2018-04-14T12:27:00.103Z,16.79
2018-04-14T12:28:00.550Z,16.57
2018-04-14T12:29:00.990Z,16.43
2018-04-14T12:30:01.419Z,16.09
2018-04-14T12:31:01.869Z,15.79
2018-04-14T12:32:02.294Z,15.65
2018-04-14T12:33:02.706Z,15.67
2018-04-14T12:34:03.136Z,15.75
2018-04-14T12:35:03.596Z,15.80
2018-04-14T12:36:03.989Z,15.65
2018-04-14T12:37:04.433Z,15.68
2018-04-14T12:38:04.883Z,15.43
2018-04-14T12:39:05.324Z,15.49
2018-04-14T12:40:05.753Z,15.44
2018-04-14T12:41:06.182Z,15.39
2018-04-14T12:42:06.624Z,15.36
2018-04-14T12:43:07.055Z,15.39
2018-04-14T12:44:07.490Z,15.47
2018-04-14T12:45:07.927Z,15.46
2018-04-14T12:46:08.325Z,15.36
2018-04-14T12:47:08.745Z,15.37
2018-04-14T12:48:09.183Z,15.07
2018-04-14T12:49:09.611Z,15.00
2018-04-14T12:50:10.050Z,15.14
2018-04-14T12:51:10.488Z,15.27
2018-04-14T12:52:10.905Z,15.25
2018-04-14T12:53:11.340Z,15.27
2018-04-14T12:54:11.785Z,15.40
2018-04-14T12:55:12.219Z,15.42
2018-04-14T12:56:12.638Z,15.42
2018-04-14T12:57:13.103Z,15.39
2018-04-14T12:58:13.502Z,15.51
2018-04-14T12:59:13.937Z,15.61
2018-04-14T13:00:14.386Z,15.61
2018-04-14T13:01:14.800Z,15.43
2018-04-14T13:02:15.235Z,15.43
2018-04-14T13:03:15.669Z,15.47
2018-04-14T13:04:16.130Z,15.35
2018-04-14T13:05:16.546Z,15.51